createdAt,value
2017-10-26T00:00:47.885Z,966.44
2017-10-26T00:01:47.911Z,966.47
2017-10-26T00:02:47.927Z,966.45
2017-10-26T00:03:47.948Z,966.45
2017-10-26T00:04:47.978Z,966.46
2017-10-26T00:05:47.992Z,966.49
2017-10-26T00:06:48.013Z,966.46
2017-10-26T00:07:48.034Z,966.49
2017-10-26T00:08:48.056Z,966.51
2017-10-26T00:09:48.078Z,966.47
2017-10-26T00:10:48.103Z,966.51
2017-10-26T00:11:48.120Z,966.5
2017-10-26T00:12:48.140Z,966.57
2017-10-26T00:13:48.171Z,966.55
2017-10-26T00:14:48.184Z,966.53
2017-10-26T00:15:48.207Z,966.55
2017-10-26T00:16:48.226Z,966.57
2017-10-26T00:17:48.249Z,966.54
2017-10-26T00:18:48.269Z,966.52
2017-10-26T00:19:48.291Z,966.58
2017-10-26T00:20:48.314Z,966.58
2017-10-26T00:21:48.335Z,966.55
2017-10-26T00:22:48.355Z,966.56
2017-10-26T00:23:48.376Z,966.57
2017-10-26T00:24:48.397Z,966.58
2017-10-26T00:25:48.422Z,966.58
2017-10-26T00:26:48.440Z,966.61
2017-10-26T00:27:48.481Z,966.65
2017-10-26T00:28:48.486Z,966.63
2017-10-26T00:29:48.513Z,966.7
2017-10-26T00:30:48.525Z,966.66
2017-10-26T00:31:48.550Z,966.73
2017-10-26T00:32:48.569Z,966.72
2017-10-26T00:33:48.592Z,966.76
2017-10-26T00:34:48.612Z,966.79
2017-10-26T00:35:48.639Z,966.75
2017-10-26T00:36:48.656Z,966.79
2017-10-26T00:37:48.678Z,966.77
2017-10-26T00:38:48.698Z,966.74
2017-10-26T00:39:48.720Z,966.72
2017-10-26T00:40:48.742Z,966.7
2017-10-26T00:41:48.783Z,966.69
2017-10-26T00:42:48.920Z,966.66
2017-10-26T00:43:48.808Z,966.68
2017-10-26T00:44:48.828Z,966.68
2017-10-26T00:45:48.849Z,966.7
2017-10-26T00:46:48.875Z,966.75
2017-10-26T00:47:48.891Z,966.75
2017-10-26T00:48:48.930Z,966.79
2017-10-26T00:49:48.935Z,966.74
2017-10-26T00:50:48.957Z,966.73
2017-10-26T00:51:48.978Z,966.74
2017-10-26T00:52:48.998Z,966.76
2017-10-26T00:53:49.026Z,966.75
2017-10-26T00:54:49.045Z,966.72
2017-10-26T00:55:49.076Z,966.73
2017-10-26T00:56:49.087Z,966.69
2017-10-26T00:57:49.108Z,966.65
2017-10-26T00:58:49.144Z,966.66
2017-10-26T00:59:49.153Z,966.64
2017-10-26T01:00:49.174Z,966.59
2017-10-26T01:01:49.195Z,966.65
2017-10-26T01:02:49.219Z,966.66
2017-10-26T01:03:49.239Z,966.65
2017-10-26T01:04:49.261Z,966.67
2017-10-26T01:05:49.302Z,966.65
2017-10-26T01:06:49.305Z,966.58
2017-10-26T01:07:49.326Z,966.64
2017-10-26T01:08:49.347Z,966.64
2017-10-26T01:09:49.370Z,966.64
2017-10-26T01:10:49.392Z,966.64
2017-10-26T01:11:49.412Z,966.59
2017-10-26T01:12:49.436Z,966.6
2017-10-26T01:13:49.457Z,966.57
2017-10-26T01:14:49.478Z,966.52
2017-10-26T01:15:49.500Z,966.51
2017-10-26T01:16:49.523Z,966.54
2017-10-26T01:17:49.544Z,966.51
2017-10-26T01:18:49.563Z,966.5
2017-10-26T01:19:49.589Z,966.48
2017-10-26T01:20:49.609Z,966.52
2017-10-26T01:21:49.645Z,966.51
2017-10-26T01:22:49.650Z,966.49
2017-10-26T01:23:49.673Z,966.5
2017-10-26T01:24:49.695Z,966.49
2017-10-26T01:25:49.717Z,966.51
2017-10-26T01:26:49.738Z,966.51
2017-10-26T01:27:49.765Z,966.53
2017-10-26T01:28:49.787Z,966.49
2017-10-26T01:29:49.803Z,966.48
2017-10-26T01:30:49.828Z,966.46
2017-10-26T01:31:49.846Z,966.5
2017-10-26T01:32:49.869Z,966.52
2017-10-26T01:33:49.889Z,966.52
2017-10-26T01:34:49.911Z,966.51
2017-10-26T01:35:49.934Z,966.53
2017-10-26T01:36:49.955Z,966.55
2017-10-26T01:37:49.978Z,966.57
2017-10-26T01:38:49.998Z,966.57
2017-10-26T01:39:50.020Z,966.53
2017-10-26T01:40:50.042Z,966.57
2017-10-26T01:41:50.064Z,966.59
2017-10-26T01:42:50.087Z,966.59
2017-10-26T01:43:50.109Z,966.56
2017-10-26T01:44:50.150Z,966.58
2017-10-26T01:45:50.152Z,966.53
2017-10-26T01:46:50.174Z,966.59
2017-10-26T01:47:50.196Z,966.54
2017-10-26T01:48:50.223Z,966.51
2017-10-26T01:49:50.240Z,966.5
2017-10-26T01:50:50.262Z,966.48
2017-10-26T01:51:50.286Z,966.52
2017-10-26T01:52:50.304Z,966.51
2017-10-26T01:53:50.328Z,966.54
2017-10-26T01:54:50.352Z,966.54
2017-10-26T01:55:50.371Z,966.52
2017-10-26T01:56:50.393Z,966.53
2017-10-26T01:57:50.421Z,966.53
2017-10-26T01:58:50.435Z,966.53
2017-10-26T01:59:50.459Z,966.51
2017-10-26T02:00:50.481Z,966.52
2017-10-26T02:01:50.502Z,966.5
2017-10-26T02:02:50.525Z,966.5
2017-10-26T02:03:50.553Z,966.52
2017-10-26T02:04:50.569Z,966.49
2017-10-26T02:05:50.590Z,966.49
2017-10-26T02:06:50.612Z,966.49
2017-10-26T02:07:50.652Z,966.45
2017-10-26T02:08:50.664Z,966.5
2017-10-26T02:09:50.676Z,966.51
2017-10-26T02:10:50.699Z,966.46
2017-10-26T02:11:50.721Z,966.45
2017-10-26T02:12:50.750Z,966.4
2017-10-26T02:13:50.765Z,966.37
2017-10-26T02:14:50.793Z,966.41
2017-10-26T02:15:50.809Z,966.38
2017-10-26T02:16:50.830Z,966.41
2017-10-26T02:17:50.853Z,966.38
2017-10-26T02:18:50.872Z,966.33
2017-10-26T02:19:50.896Z,966.31
2017-10-26T02:20:50.917Z,966.34
2017-10-26T02:21:50.937Z,966.38
2017-10-26T02:22:50.964Z,966.36
2017-10-26T02:23:50.982Z,966.35
2017-10-26T02:24:51.002Z,966.36
2017-10-26T02:25:51.024Z,966.37
2017-10-26T02:26:51.047Z,966.38
2017-10-26T02:27:51.070Z,966.34
2017-10-26T02:28:51.089Z,966.32
2017-10-26T02:29:51.110Z,966.33
2017-10-26T02:30:51.157Z,966.31
2017-10-26T02:31:51.154Z,966.28
2017-10-26T02:32:51.178Z,966.3
2017-10-26T02:33:51.197Z,966.27
2017-10-26T02:34:51.220Z,966.27
2017-10-26T02:35:51.239Z,966.31
2017-10-26T02:36:51.261Z,966.3
2017-10-26T02:37:51.284Z,966.31
2017-10-26T02:38:51.304Z,966.28
2017-10-26T02:39:51.325Z,966.28
2017-10-26T02:40:51.349Z,966.27
2017-10-26T02:41:51.378Z,966.24
2017-10-26T02:42:51.410Z,966.24
2017-10-26T02:43:51.413Z,966.2
2017-10-26T02:44:51.434Z,966.21
2017-10-26T02:45:51.460Z,966.21
2017-10-26T02:46:51.478Z,966.2
2017-10-26T02:47:51.499Z,966.2
2017-10-26T02:48:51.521Z,966.22
2017-10-26T02:49:51.542Z,966.23
2017-10-26T02:50:51.564Z,966.23
2017-10-26T02:51:51.584Z,966.24
2017-10-26T02:52:51.607Z,966.26
2017-10-26T02:53:51.629Z,966.24
2017-10-26T02:54:51.649Z,966.25
2017-10-26T02:55:51.671Z,966.28
2017-10-26T02:56:51.694Z,966.26
2017-10-26T02:57:51.758Z,966.24
2017-10-26T02:58:51.736Z,966.26
2017-10-26T02:59:51.757Z,966.24
2017-10-26T03:00:51.785Z,966.26
2017-10-26T03:01:51.800Z,966.25
2017-10-26T03:02:51.823Z,966.22
2017-10-26T03:03:51.843Z,966.24
2017-10-26T03:04:51.864Z,966.28
2017-10-26T03:05:51.892Z,966.28
2017-10-26T03:06:51.907Z,966.26
2017-10-26T03:07:51.928Z,966.26
2017-10-26T03:08:51.953Z,966.3
2017-10-26T03:09:51.972Z,966.31
2017-10-26T03:10:51.994Z,966.33
2017-10-26T03:11:52.013Z,966.29
2017-10-26T03:12:52.036Z,966.31
2017-10-26T03:13:52.058Z,966.34
2017-10-26T03:14:52.079Z,966.32
2017-10-26T03:15:52.100Z,966.35
2017-10-26T03:16:52.121Z,966.31
2017-10-26T03:17:52.142Z,966.37
2017-10-26T03:18:52.165Z,966.35
2017-10-26T03:19:52.187Z,966.37
2017-10-26T03:20:52.209Z,966.36
2017-10-26T03:21:52.230Z,966.36
2017-10-26T03:22:52.249Z,966.4
2017-10-26T03:23:52.287Z,966.37
2017-10-26T03:24:52.296Z,966.39
2017-10-26T03:25:52.313Z,966.4
2017-10-26T03:26:52.332Z,966.38
2017-10-26T03:27:52.356Z,966.4
2017-10-26T03:28:52.377Z,966.42
2017-10-26T03:29:52.396Z,966.45
2017-10-26T03:30:52.420Z,966.46
2017-10-26T03:31:52.447Z,966.47
2017-10-26T03:32:52.465Z,966.45
2017-10-26T03:33:52.483Z,966.43
2017-10-26T03:34:52.502Z,966.45
2017-10-26T03:35:52.525Z,966.45
2017-10-26T03:36:52.552Z,966.42
2017-10-26T03:37:52.567Z,966.44
2017-10-26T03:38:52.586Z,966.47
2017-10-26T03:39:52.609Z,966.45
2017-10-26T03:40:52.628Z,966.41
2017-10-26T03:41:52.650Z,966.43
2017-10-26T03:42:52.671Z,966.46
2017-10-26T03:43:52.692Z,966.43
2017-10-26T03:44:52.723Z,966.41
2017-10-26T03:45:52.734Z,966.4
2017-10-26T03:46:52.756Z,966.44
2017-10-26T03:47:52.777Z,966.41
2017-10-26T03:48:52.797Z,966.4
2017-10-26T03:49:52.819Z,966.41
2017-10-26T03:50:52.840Z,966.39
2017-10-26T03:51:52.860Z,966.42
2017-10-26T03:52:52.883Z,966.39
2017-10-26T03:53:52.903Z,966.38
2017-10-26T03:54:52.923Z,966.34
2017-10-26T03:55:52.943Z,966.35
2017-10-26T03:56:52.965Z,966.32
2017-10-26T03:57:52.986Z,966.26
2017-10-26T03:58:53.025Z,966.3
2017-10-26T03:59:53.027Z,966.27
2017-10-26T04:00:53.050Z,966.26
2017-10-26T04:01:53.075Z,966.27
2017-10-26T04:02:53.091Z,966.23
2017-10-26T04:03:53.112Z,966.27
2017-10-26T04:04:53.133Z,966.25
2017-10-26T04:05:53.155Z,966.21
2017-10-26T04:06:53.175Z,966.25
2017-10-26T04:07:53.196Z,966.24
2017-10-26T04:08:53.235Z,966.2
2017-10-26T04:09:53.238Z,966.2
2017-10-26T04:10:53.258Z,966.22
2017-10-26T04:11:53.279Z,966.18
2017-10-26T04:12:53.302Z,966.18
2017-10-26T04:13:53.321Z,966.18
2017-10-26T04:14:53.343Z,966.14
2017-10-26T04:15:53.364Z,966.14
2017-10-26T04:16:53.384Z,966.14
2017-10-26T04:17:53.418Z,966.12
2017-10-26T04:18:53.427Z,966.1
2017-10-26T04:19:53.448Z,966.12
2017-10-26T04:20:53.470Z,966.11
2017-10-26T04:21:53.490Z,966.11
2017-10-26T04:22:53.510Z,966.12
2017-10-26T04:23:53.532Z,966.08
2017-10-26T04:24:53.556Z,966.07
2017-10-26T04:25:53.575Z,966.08
2017-10-26T04:26:53.596Z,966.08
2017-10-26T04:27:53.618Z,966.12
2017-10-26T04:28:53.636Z,966.14
2017-10-26T04:29:53.658Z,966.09
2017-10-26T04:30:53.679Z,966.11
2017-10-26T04:31:53.701Z,966.08
2017-10-26T04:32:53.738Z,966.16
2017-10-26T04:33:53.743Z,966.12
2017-10-26T04:34:53.762Z,966.11
2017-10-26T04:35:53.785Z,966.1
2017-10-26T04:36:53.806Z,966.11
2017-10-26T04:37:53.833Z,966.12
2017-10-26T04:38:53.847Z,966.15
2017-10-26T04:39:53.873Z,966.15
2017-10-26T04:40:53.889Z,966.16
2017-10-26T04:41:53.911Z,966.2
2017-10-26T04:42:53.931Z,966.24
2017-10-26T04:43:53.952Z,966.24
2017-10-26T04:44:53.974Z,966.18
2017-10-26T04:45:53.995Z,966.2
2017-10-26T04:46:54.015Z,966.2
2017-10-26T04:47:54.037Z,966.18
2017-10-26T04:48:54.057Z,966.18
2017-10-26T04:49:54.078Z,966.19
2017-10-26T04:50:54.098Z,966.2
2017-10-26T04:51:54.120Z,966.18
2017-10-26T04:52:54.143Z,966.21
2017-10-26T04:53:54.163Z,966.19
2017-10-26T04:54:54.183Z,966.17
2017-10-26T04:55:54.213Z,966.21
2017-10-26T04:56:54.228Z,966.18
2017-10-26T04:57:54.246Z,966.14
2017-10-26T04:58:54.268Z,966.14
2017-10-26T04:59:54.308Z,966.13
2017-10-26T05:00:54.310Z,966.11
2017-10-26T05:01:54.331Z,966.11
2017-10-26T05:02:54.366Z,966.13
2017-10-26T05:03:54.373Z,966.12
2017-10-26T05:04:54.395Z,966.08
2017-10-26T05:05:54.419Z,966.07
2017-10-26T05:06:54.437Z,966.1
2017-10-26T05:07:54.457Z,966.07
2017-10-26T05:08:54.478Z,966.05
2017-10-26T05:09:54.501Z,966.07
2017-10-26T05:10:54.524Z,966.08
2017-10-26T05:11:54.544Z,966.05
2017-10-26T05:12:54.565Z,966.08
2017-10-26T05:13:54.586Z,966.07
2017-10-26T05:14:54.627Z,966.07
2017-10-26T05:15:54.627Z,966.08
2017-10-26T05:16:54.648Z,966.08
2017-10-26T05:17:54.671Z,966.12
2017-10-26T05:18:54.692Z,966.05
2017-10-26T05:19:54.711Z,966.04
2017-10-26T05:20:54.734Z,966.1
2017-10-26T05:21:54.760Z,966.05
2017-10-26T05:22:54.777Z,966.04
2017-10-26T05:23:54.798Z,966.05
2017-10-26T05:24:54.818Z,966.04
2017-10-26T05:25:54.840Z,966.02
2017-10-26T05:26:54.861Z,965.99
2017-10-26T05:27:54.881Z,966.03
2017-10-26T05:28:54.902Z,966.05
2017-10-26T05:29:54.923Z,966.03
2017-10-26T05:30:54.952Z,966.01
2017-10-26T05:31:54.967Z,965.97
2017-10-26T05:32:54.988Z,966.02
2017-10-26T05:33:55.029Z,966.01
2017-10-26T05:34:55.030Z,966
2017-10-26T05:35:55.052Z,965.94
2017-10-26T05:36:55.073Z,965.95
2017-10-26T05:37:55.092Z,965.94
2017-10-26T05:38:55.115Z,965.93
2017-10-26T05:39:55.136Z,965.91
2017-10-26T05:40:55.157Z,965.94
2017-10-26T05:41:55.177Z,965.95
2017-10-26T05:42:55.198Z,965.88
2017-10-26T05:43:55.220Z,965.88
2017-10-26T05:44:55.240Z,965.87
2017-10-26T05:45:55.261Z,965.84
2017-10-26T05:46:55.281Z,965.86
2017-10-26T05:47:55.304Z,965.84
2017-10-26T05:48:55.328Z,965.83
2017-10-26T05:49:55.344Z,965.83
2017-10-26T05:50:55.365Z,965.86
2017-10-26T05:51:55.386Z,965.83
2017-10-26T05:52:55.405Z,965.85
2017-10-26T05:53:55.427Z,965.87
2017-10-26T05:54:55.448Z,965.86
2017-10-26T05:55:55.470Z,965.87
2017-10-26T05:56:55.489Z,965.92
2017-10-26T05:57:55.511Z,965.86
2017-10-26T05:58:55.530Z,965.86
2017-10-26T05:59:55.551Z,965.86
2017-10-26T06:00:55.573Z,965.86
2017-10-26T06:01:55.593Z,965.87
2017-10-26T06:02:55.614Z,965.85
2017-10-26T06:03:55.658Z,965.85
2017-10-26T06:04:55.656Z,965.84
2017-10-26T06:05:55.676Z,965.85
2017-10-26T06:06:55.696Z,965.81
2017-10-26T06:07:55.716Z,965.81
2017-10-26T06:08:55.738Z,965.82
2017-10-26T06:09:55.759Z,965.79
2017-10-26T06:10:55.778Z,965.78
2017-10-26T06:11:55.817Z,965.8
2017-10-26T06:12:55.820Z,965.82
2017-10-26T06:13:55.846Z,965.82
2017-10-26T06:14:55.862Z,965.82
2017-10-26T06:15:55.882Z,965.85
2017-10-26T06:16:55.903Z,965.83
2017-10-26T06:17:55.923Z,965.82
2017-10-26T06:18:55.944Z,965.9
2017-10-26T06:19:55.964Z,965.85
2017-10-26T06:20:55.982Z,965.87
2017-10-26T06:21:56.004Z,965.87
2017-10-26T06:22:56.025Z,965.88
2017-10-26T06:23:56.045Z,965.88
2017-10-26T06:24:56.065Z,965.9
2017-10-26T06:25:56.085Z,965.92
2017-10-26T06:26:56.104Z,965.9
2017-10-26T06:27:56.125Z,965.9
2017-10-26T06:28:56.145Z,965.88
2017-10-26T06:29:56.166Z,965.92
2017-10-26T06:30:56.188Z,965.89
2017-10-26T06:31:56.207Z,965.88
2017-10-26T06:32:56.227Z,965.87
2017-10-26T06:33:56.248Z,965.85
2017-10-26T06:34:56.269Z,965.88
2017-10-26T06:35:56.288Z,965.89
2017-10-26T06:36:56.307Z,965.9
2017-10-26T06:37:56.330Z,965.84
2017-10-26T06:38:56.355Z,965.87
2017-10-26T06:39:56.370Z,965.87
2017-10-26T06:40:56.392Z,965.91
2017-10-26T06:41:56.412Z,965.9
2017-10-26T06:42:56.436Z,965.91
2017-10-26T06:43:56.452Z,965.87
2017-10-26T06:44:56.473Z,965.86
2017-10-26T06:45:56.493Z,965.85
2017-10-26T06:46:56.515Z,965.83
2017-10-26T06:47:56.534Z,965.83
2017-10-26T06:48:56.555Z,965.82
2017-10-26T06:49:56.575Z,965.84
2017-10-26T06:50:56.596Z,965.86
2017-10-26T06:51:56.616Z,965.88
2017-10-26T06:52:56.638Z,965.86
2017-10-26T06:53:56.659Z,965.89
2017-10-26T06:54:56.677Z,965.89
2017-10-26T06:55:56.702Z,965.94
2017-10-26T06:56:56.728Z,965.92
2017-10-26T06:57:56.749Z,965.96
2017-10-26T06:58:56.761Z,965.96
2017-10-26T06:59:56.782Z,965.97
2017-10-26T07:00:56.802Z,965.95
2017-10-26T07:01:56.823Z,965.97
2017-10-26T07:02:56.842Z,965.98
2017-10-26T07:03:56.862Z,965.94
2017-10-26T07:04:56.890Z,965.91
2017-10-26T07:05:56.905Z,965.93
2017-10-26T07:06:56.925Z,965.91
2017-10-26T07:07:56.945Z,965.87
2017-10-26T07:08:56.967Z,965.86
2017-10-26T07:09:56.987Z,965.88
2017-10-26T07:10:57.007Z,965.86
2017-10-26T07:11:57.035Z,965.88
2017-10-26T07:12:57.047Z,965.86
2017-10-26T07:13:57.068Z,965.88
2017-10-26T07:14:57.090Z,965.89
2017-10-26T07:15:57.110Z,965.83
2017-10-26T07:16:57.134Z,965.87
2017-10-26T07:17:57.152Z,965.85
2017-10-26T07:18:57.174Z,965.91
2017-10-26T07:19:57.193Z,965.89
2017-10-26T07:20:57.214Z,965.94
2017-10-26T07:21:57.236Z,965.94
2017-10-26T07:22:57.257Z,965.95
2017-10-26T07:23:57.277Z,966
2017-10-26T07:24:57.298Z,966.02
2017-10-26T07:25:57.319Z,966.06
2017-10-26T07:26:57.340Z,966.07
2017-10-26T07:27:57.361Z,966.09
2017-10-26T07:28:57.383Z,966.09
2017-10-26T07:29:57.403Z,966.08
2017-10-26T07:30:57.426Z,966.04
2017-10-26T07:31:57.445Z,966.05
2017-10-26T07:32:57.466Z,966.05
2017-10-26T07:33:57.487Z,966.02
2017-10-26T07:34:57.517Z,966.08
2017-10-26T07:35:57.529Z,966.06
2017-10-26T07:36:57.552Z,966.05
2017-10-26T07:37:57.574Z,966.03
2017-10-26T07:38:57.596Z,966.05
2017-10-26T07:39:57.615Z,966.02
2017-10-26T07:40:57.635Z,966.05
2017-10-26T07:41:57.659Z,966.05
2017-10-26T07:42:57.678Z,966.04
2017-10-26T07:43:57.700Z,966.03
2017-10-26T07:44:57.722Z,966.02
2017-10-26T07:45:57.741Z,966.03
2017-10-26T07:46:57.766Z,966.11
2017-10-26T07:47:57.788Z,966.14
2017-10-26T07:48:57.809Z,966.14
2017-10-26T07:49:57.830Z,966.11
2017-10-26T07:50:57.853Z,966.14
2017-10-26T07:51:57.874Z,966.11
2017-10-26T07:52:57.897Z,966.07
2017-10-26T07:53:57.918Z,966.05
2017-10-26T07:54:57.941Z,966.04
2017-10-26T07:55:57.962Z,966.08
2017-10-26T07:56:57.985Z,966.07
2017-10-26T07:57:58.019Z,966.07
2017-10-26T07:58:58.030Z,966.09
2017-10-26T07:59:58.052Z,966.08
2017-10-26T08:00:58.075Z,966.14
2017-10-26T08:01:58.097Z,966.16
2017-10-26T08:02:58.120Z,966.14
2017-10-26T08:03:58.146Z,966.13
2017-10-26T08:04:58.165Z,966.11
2017-10-26T08:05:58.194Z,966.08
2017-10-26T08:06:58.211Z,966.1
2017-10-26T08:07:58.232Z,966.07
2017-10-26T08:08:58.255Z,966.07
2017-10-26T08:09:58.278Z,966.07
2017-10-26T08:10:58.301Z,966.03
2017-10-26T08:11:58.323Z,966.04
2017-10-26T08:12:58.346Z,966.04
2017-10-26T08:13:58.375Z,966.07
2017-10-26T08:14:58.391Z,966.02
2017-10-26T08:15:58.414Z,965.99
2017-10-26T08:16:58.440Z,966.04
2017-10-26T08:17:58.460Z,965.99
2017-10-26T08:18:58.482Z,965.97
2017-10-26T08:19:58.547Z,965.96
2017-10-26T08:20:58.582Z,965.97
2017-10-26T08:21:58.552Z,965.98
2017-10-26T08:22:58.573Z,965.98
2017-10-26T08:23:58.596Z,965.93
2017-10-26T08:24:58.619Z,966.02
2017-10-26T08:25:58.642Z,965.97
2017-10-26T08:26:58.664Z,966
2017-10-26T08:27:58.691Z,966.03
2017-10-26T08:28:58.711Z,965.96
2017-10-26T08:29:58.732Z,965.99
2017-10-26T08:30:58.755Z,965.99
2017-10-26T08:31:58.779Z,965.96
2017-10-26T08:32:58.802Z,965.98
2017-10-26T08:33:58.825Z,965.98
2017-10-26T08:34:58.847Z,965.96
2017-10-26T08:35:58.871Z,965.97
2017-10-26T08:36:58.902Z,965.91
2017-10-26T08:37:58.915Z,965.88
2017-10-26T08:38:58.939Z,965.84
2017-10-26T08:39:58.962Z,965.78
2017-10-26T08:40:58.983Z,965.76
2017-10-26T08:41:59.006Z,965.73
2017-10-26T08:42:59.028Z,965.77
2017-10-26T08:43:59.052Z,965.76
2017-10-26T08:44:59.074Z,965.7
2017-10-26T08:45:59.098Z,965.67
2017-10-26T08:46:59.121Z,965.7
2017-10-26T08:47:59.143Z,965.68
2017-10-26T08:48:59.167Z,965.67
2017-10-26T08:49:59.188Z,965.68
2017-10-26T08:50:59.211Z,965.66
2017-10-26T08:51:59.243Z,965.65
2017-10-26T08:52:59.258Z,965.67
2017-10-26T08:53:59.282Z,965.67
2017-10-26T08:54:59.304Z,965.67
2017-10-26T08:55:59.327Z,965.69
2017-10-26T08:56:59.349Z,965.7
2017-10-26T08:57:59.372Z,965.71
2017-10-26T08:58:59.396Z,965.69
2017-10-26T08:59:59.419Z,965.69
2017-10-26T09:00:59.449Z,965.66
2017-10-26T09:01:59.466Z,965.67
2017-10-26T09:02:59.488Z,965.66
2017-10-26T09:03:59.511Z,965.66
2017-10-26T09:04:59.536Z,965.67
2017-10-26T09:05:59.558Z,965.67
2017-10-26T09:06:59.581Z,965.66
2017-10-26T09:07:59.621Z,965.64
2017-10-26T09:08:59.627Z,965.63
2017-10-26T09:09:59.655Z,965.61
2017-10-26T09:10:59.675Z,965.66
2017-10-26T09:11:59.699Z,965.64
2017-10-26T09:12:59.722Z,965.57
2017-10-26T09:13:59.745Z,965.57
2017-10-26T09:14:59.771Z,965.55
2017-10-26T09:15:59.794Z,965.55
2017-10-26T09:16:59.816Z,965.54
2017-10-26T09:17:59.839Z,965.58
2017-10-26T09:18:59.863Z,965.58
2017-10-26T09:19:59.889Z,965.59
2017-10-26T09:20:59.911Z,965.56
2017-10-26T09:21:59.936Z,965.61
2017-10-26T09:22:59.966Z,965.57
2017-10-26T09:23:59.989Z,965.62
2017-10-26T09:25:00.007Z,965.59
2017-10-26T09:26:00.033Z,965.56
2017-10-26T09:27:00.062Z,965.58
2017-10-26T09:28:00.079Z,965.56
2017-10-26T09:29:00.105Z,965.53
2017-10-26T09:30:00.126Z,965.56
2017-10-26T09:31:00.151Z,965.51
2017-10-26T09:32:00.175Z,965.56
2017-10-26T09:33:00.199Z,965.58
2017-10-26T09:34:00.222Z,965.53
2017-10-26T09:35:00.246Z,965.58
2017-10-26T09:36:00.271Z,965.56
2017-10-26T09:37:00.296Z,965.56
2017-10-26T09:38:00.319Z,965.59
2017-10-26T09:39:00.346Z,965.61
2017-10-26T09:40:00.369Z,965.58
2017-10-26T09:41:00.393Z,965.61
2017-10-26T09:42:00.417Z,965.58
2017-10-26T09:43:00.439Z,965.65
2017-10-26T09:44:00.466Z,965.64
2017-10-26T09:45:00.492Z,965.64
2017-10-26T09:46:00.516Z,965.68
2017-10-26T09:47:00.566Z,965.7
2017-10-26T09:48:00.563Z,965.74
2017-10-26T09:49:00.587Z,965.77
2017-10-26T09:50:00.617Z,965.79
2017-10-26T09:51:00.637Z,965.82
2017-10-26T09:52:00.662Z,965.79
2017-10-26T09:53:00.688Z,965.8
2017-10-26T09:54:00.711Z,965.83
2017-10-26T09:55:00.737Z,965.81
2017-10-26T09:56:00.762Z,965.8
2017-10-26T09:57:00.789Z,965.8
2017-10-26T09:58:00.815Z,965.71
2017-10-26T09:59:00.839Z,965.75
2017-10-26T10:00:00.867Z,965.76
2017-10-26T10:01:00.891Z,965.8
2017-10-26T10:02:00.919Z,965.85
2017-10-26T10:03:00.948Z,965.82
2017-10-26T10:04:00.972Z,965.86
2017-10-26T10:05:00.997Z,965.86
2017-10-26T10:06:01.025Z,965.87
2017-10-26T10:07:01.053Z,965.85
2017-10-26T10:08:01.080Z,965.8
2017-10-26T10:09:01.108Z,965.79
2017-10-26T10:10:01.141Z,965.76
2017-10-26T10:11:01.164Z,965.79
2017-10-26T10:12:01.193Z,965.79
2017-10-26T10:13:01.220Z,965.74
2017-10-26T10:14:01.249Z,965.76
2017-10-26T10:15:01.278Z,965.76
2017-10-26T10:16:01.311Z,965.76
2017-10-26T10:17:01.335Z,965.71
2017-10-26T10:18:01.365Z,965.79
2017-10-26T10:19:01.400Z,965.71
2017-10-26T10:20:01.425Z,965.72
2017-10-26T10:21:01.454Z,965.66
2017-10-26T10:22:01.482Z,965.73
2017-10-26T10:23:01.518Z,965.67
2017-10-26T10:24:01.543Z,965.69
2017-10-26T10:25:01.573Z,965.71
2017-10-26T10:26:01.604Z,965.73
2017-10-26T10:27:01.654Z,965.77
2017-10-26T10:28:01.663Z,965.71
2017-10-26T10:29:01.696Z,965.71
2017-10-26T10:30:01.726Z,965.68
2017-10-26T10:31:01.755Z,965.68
2017-10-26T10:32:01.787Z,965.65
2017-10-26T10:33:01.827Z,965.72
2017-10-26T10:34:01.848Z,965.73
2017-10-26T10:35:01.884Z,965.66
2017-10-26T10:36:01.910Z,965.63
2017-10-26T10:37:01.944Z,965.56
2017-10-26T10:38:01.984Z,965.55
2017-10-26T10:39:02.005Z,965.55
2017-10-26T10:40:02.037Z,965.51
2017-10-26T10:41:02.067Z,965.52
2017-10-26T10:42:02.098Z,965.51
2017-10-26T10:43:02.149Z,965.53
2017-10-26T10:44:02.162Z,965.51
2017-10-26T10:45:02.193Z,965.49
2017-10-26T10:46:02.225Z,965.46
2017-10-26T10:47:02.257Z,965.42
2017-10-26T10:48:02.287Z,965.49
2017-10-26T10:49:02.317Z,965.42
2017-10-26T10:50:02.348Z,965.44
2017-10-26T10:51:02.379Z,965.42
2017-10-26T10:52:02.410Z,965.39
2017-10-26T10:53:02.440Z,965.42
2017-10-26T10:54:02.471Z,965.42
2017-10-26T10:55:02.503Z,965.42
2017-10-26T10:56:02.534Z,965.37
2017-10-26T10:57:02.567Z,965.36
2017-10-26T10:58:02.596Z,965.4
2017-10-26T10:59:02.627Z,965.33
2017-10-26T11:00:02.680Z,965.33
2017-10-26T11:01:02.690Z,965.3
2017-10-26T11:02:02.723Z,965.39
2017-10-26T11:03:02.754Z,965.37
2017-10-26T11:04:02.785Z,965.33
2017-10-26T11:05:02.818Z,965.33
2017-10-26T11:06:02.850Z,965.36
2017-10-26T11:07:02.882Z,965.37
2017-10-26T11:08:02.915Z,965.39
2017-10-26T11:09:02.947Z,965.41
2017-10-26T11:10:02.986Z,965.46
2017-10-26T11:11:03.013Z,965.43
2017-10-26T11:12:03.048Z,965.43
2017-10-26T11:13:03.083Z,965.45
2017-10-26T11:14:03.116Z,965.42
2017-10-26T11:15:03.149Z,965.44
2017-10-26T11:16:03.189Z,965.37
2017-10-26T11:17:03.222Z,965.36
2017-10-26T11:18:03.250Z,965.42
2017-10-26T11:19:03.285Z,965.36
2017-10-26T11:20:03.320Z,965.41
2017-10-26T11:21:03.355Z,965.41
2017-10-26T11:22:03.390Z,965.42
2017-10-26T11:23:03.423Z,965.42
2017-10-26T11:24:03.456Z,965.42
2017-10-26T11:25:03.489Z,965.38
2017-10-26T11:26:03.524Z,965.4
2017-10-26T11:27:03.559Z,965.42
2017-10-26T11:28:03.598Z,965.39
2017-10-26T11:29:03.627Z,965.35
2017-10-26T11:30:03.675Z,965.37
2017-10-26T11:31:03.697Z,965.36
2017-10-26T11:32:03.731Z,965.42
2017-10-26T11:33:03.765Z,965.37
2017-10-26T11:34:03.801Z,965.41
2017-10-26T11:35:03.834Z,965.38
2017-10-26T11:36:03.868Z,965.36
2017-10-26T11:37:03.903Z,965.35
2017-10-26T11:38:03.938Z,965.38
2017-10-26T11:39:03.971Z,965.39
2017-10-26T11:40:04.008Z,965.32
2017-10-26T11:41:04.041Z,965.44
2017-10-26T11:42:04.076Z,965.39
2017-10-26T11:43:04.115Z,965.38
2017-10-26T11:44:04.143Z,965.38
2017-10-26T11:45:04.178Z,965.41
2017-10-26T11:46:04.215Z,965.45
2017-10-26T11:47:04.247Z,965.4
2017-10-26T11:48:04.283Z,965.42
2017-10-26T11:49:04.319Z,965.47
2017-10-26T11:50:04.358Z,965.48
2017-10-26T11:51:04.386Z,965.5
2017-10-26T11:52:04.422Z,965.44
2017-10-26T11:53:04.456Z,965.5
2017-10-26T11:54:04.492Z,965.45
2017-10-26T11:55:04.525Z,965.49
2017-10-26T11:56:04.560Z,965.43
2017-10-26T11:57:04.594Z,965.48
2017-10-26T11:58:04.629Z,965.47
2017-10-26T11:59:04.664Z,965.39
2017-10-26T12:00:04.698Z,965.46
2017-10-26T12:01:04.733Z,965.5
2017-10-26T12:02:04.765Z,965.49
2017-10-26T12:03:04.801Z,965.5
2017-10-26T12:04:04.838Z,965.49
2017-10-26T12:05:04.871Z,965.52
2017-10-26T12:06:04.906Z,965.52
2017-10-26T12:07:04.950Z,965.53
2017-10-26T12:08:04.978Z,965.51
2017-10-26T12:09:05.013Z,965.54
2017-10-26T12:10:05.048Z,965.52
2017-10-26T12:11:05.084Z,965.58
2017-10-26T12:12:05.118Z,965.52
2017-10-26T12:13:05.153Z,965.57
2017-10-26T12:14:05.189Z,965.57
2017-10-26T12:15:05.226Z,965.56
2017-10-26T12:16:05.265Z,965.55
2017-10-26T12:17:05.330Z,965.56
2017-10-26T12:18:05.338Z,965.53
2017-10-26T12:19:05.374Z,965.52
2017-10-26T12:20:05.409Z,965.52
2017-10-26T12:21:05.447Z,965.55
2017-10-26T12:22:05.484Z,965.44
2017-10-26T12:23:05.520Z,965.38
2017-10-26T12:24:05.555Z,965.36
2017-10-26T12:25:05.595Z,965.37
2017-10-26T12:26:05.629Z,965.39
2017-10-26T12:27:05.667Z,965.36
2017-10-26T12:28:05.703Z,965.37
2017-10-26T12:29:05.739Z,965.39
2017-10-26T12:30:05.778Z,965.35
2017-10-26T12:31:05.812Z,965.35